createdAt,value
2023-04-11T00:01:48.586Z,10.53
2023-04-11T00:04:16.803Z,10.46
2023-04-11T00:06:44.220Z,10.52
2023-04-11T00:09:11.947Z,10.50
2023-04-11T00:11:39.154Z,10.48
2023-04-11T00:14:06.405Z,10.48
2023-04-11T00:16:35.071Z,10.45
2023-04-11T00:19:02.356Z,10.49
2023-04-11T00:21:29.532Z,10.47
2023-04-11T00:23:56.787Z,10.38
2023-04-11T00:26:23.963Z,10.27
2023-04-11T00:28:51.160Z,10.19
2023-04-11T00:31:18.372Z,10.15
2023-04-11T00:33:46.953Z,10.25
2023-04-11T00:36:14.360Z,10.21
2023-04-11T00:38:41.764Z,10.15
2023-04-11T00:41:08.957Z,10.14
2023-04-11T00:43:36.397Z,10.09
2023-04-11T00:46:04.033Z,10.07
2023-04-11T00:48:31.734Z,9.99
2023-04-11T00:51:00.891Z,9.93
2023-04-11T00:53:28.406Z,9.78
2023-04-11T00:55:55.632Z,9.61
2023-04-11T00:58:22.940Z,9.61
2023-04-11T01:00:50.243Z,9.60
2023-04-11T01:03:18.447Z,9.52
2023-04-11T01:05:48.150Z,9.50
2023-04-11T01:08:17.500Z,9.52
2023-04-11T01:10:44.963Z,9.42
2023-04-11T01:13:13.040Z,9.30
2023-04-11T01:15:40.365Z,9.28
2023-04-11T01:18:07.672Z,9.20
2023-04-11T01:20:34.935Z,9.15
2023-04-11T01:23:02.422Z,9.05
2023-04-11T01:25:31.096Z,9.08
2023-04-11T01:27:58.762Z,8.98
2023-04-11T01:30:26.205Z,8.97
2023-04-11T01:32:53.433Z,8.93
2023-04-11T01:35:21.004Z,8.84
2023-04-11T01:37:48.187Z,8.89
2023-04-11T01:40:18.612Z,8.85
2023-04-11T01:42:48.293Z,8.82
2023-04-11T01:45:15.775Z,8.74
2023-04-11T01:47:43.173Z,8.84
2023-04-11T01:50:11.631Z,8.78
2023-04-11T01:52:38.903Z,8.83
2023-04-11T01:55:06.684Z,8.82
2023-04-11T01:57:33.877Z,8.78
2023-04-11T02:00:02.416Z,8.82
2023-04-11T02:02:30.406Z,8.83
2023-04-11T02:04:57.820Z,8.70
2023-04-11T02:07:25.138Z,8.74
2023-04-11T02:09:52.352Z,8.70
2023-04-11T02:12:19.533Z,8.72
2023-04-11T02:14:46.791Z,8.66
2023-04-11T02:17:15.954Z,8.61
2023-04-11T02:19:43.192Z,8.52
2023-04-11T02:22:10.391Z,8.50
2023-04-11T02:24:38.334Z,8.44
2023-04-11T02:27:05.857Z,8.43
2023-04-11T02:29:33.526Z,8.34
2023-04-11T02:32:00.964Z,8.37
2023-04-11T02:34:29.613Z,8.30
2023-04-11T02:36:56.805Z,8.18
2023-04-11T02:39:24.105Z,8.16
2023-04-11T02:41:51.331Z,8.05
2023-04-11T02:44:19.255Z,8.03
2023-04-11T02:46:47.038Z,8.03
2023-04-11T02:49:14.273Z,8.00
2023-04-11T02:51:43.116Z,8.05
2023-04-11T02:54:10.338Z,7.99
2023-04-11T02:56:38.629Z,8.11
2023-04-11T02:59:06.012Z,8.09
2023-04-11T03:01:33.800Z,8.04
2023-04-11T03:04:01.207Z,8.02
2023-04-11T03:06:39.242Z,7.98
2023-04-11T03:09:07.865Z,8.03
2023-04-11T03:11:35.069Z,8.01
2023-04-11T03:14:03.431Z,8.05
2023-04-11T03:16:30.794Z,8.06
2023-04-11T03:18:58.070Z,8.01
2023-04-11T03:21:25.373Z,8.03
2023-04-11T03:23:52.954Z,8.04
2023-04-11T03:26:21.479Z,8.05
2023-04-11T03:28:48.903Z,8.03
2023-04-11T03:31:18.882Z,8.07
2023-04-11T03:33:46.662Z,8.05
2023-04-11T03:36:13.931Z,8.01
2023-04-11T03:38:41.637Z,8.00
2023-04-11T03:41:08.837Z,8.02
2023-04-11T03:43:37.370Z,8.08
2023-04-11T03:46:05.197Z,8.06
2023-04-11T03:48:37.857Z,8.05
2023-04-11T03:51:08.634Z,8.10
2023-04-11T03:53:50.350Z,8.12
2023-04-11T03:56:23.759Z,8.11
2023-04-11T03:58:52.382Z,8.11
2023-04-11T04:01:22.492Z,8.10
2023-04-11T04:03:52.602Z,8.14
2023-04-11T04:06:20.084Z,8.12
2023-04-11T04:08:48.208Z,8.10
2023-04-11T04:11:16.834Z,8.16
2023-04-11T04:13:45.890Z,8.14
2023-04-11T04:16:17.907Z,8.14
2023-04-11T04:18:50.585Z,8.15
2023-04-11T04:21:18.547Z,8.13
2023-04-11T04:23:46.365Z,8.13
2023-04-11T04:26:29.828Z,8.10
2023-04-11T04:29:07.791Z,8.14
2023-04-11T04:31:50.173Z,8.05
2023-04-11T04:34:19.915Z,8.10
2023-04-11T04:36:47.859Z,8.09
2023-04-11T04:39:19.218Z,8.02
2023-04-11T04:41:49.980Z,8.00
2023-04-11T04:44:17.751Z,7.97
2023-04-11T04:46:54.642Z,7.91
2023-04-11T04:49:24.490Z,7.91
2023-04-11T04:51:51.707Z,7.84
2023-04-11T04:54:18.999Z,7.89
2023-04-11T04:56:46.197Z,7.78
2023-04-11T04:59:13.747Z,7.80
2023-04-11T05:01:41.358Z,7.82
2023-04-11T05:04:11.581Z,7.86
2023-04-11T05:06:54.852Z,7.84
2023-04-11T05:09:22.143Z,7.87
2023-04-11T05:11:51.744Z,7.90
2023-04-11T05:14:21.271Z,7.92
2023-04-11T05:16:48.539Z,7.92
2023-04-11T05:19:17.250Z,7.93
2023-04-11T05:21:47.553Z,7.96
2023-04-11T05:24:14.818Z,7.94
2023-04-11T05:26:42.040Z,7.88
2023-04-11T05:29:11.882Z,7.96
2023-04-11T05:31:39.054Z,8.04
2023-04-11T05:34:06.439Z,8.06
2023-04-11T05:36:35.752Z,8.11
2023-04-11T05:39:02.966Z,8.16
2023-04-11T05:41:30.125Z,8.17
2023-04-11T05:43:57.527Z,8.26
2023-04-11T05:46:25.801Z,8.21
2023-04-11T05:48:53.812Z,8.29
2023-04-11T05:51:21.033Z,8.37
2023-04-11T05:53:49.551Z,8.43
2023-04-11T05:56:16.795Z,8.48
2023-04-11T05:58:43.989Z,8.45
2023-04-11T06:01:11.180Z,8.50
2023-04-11T06:03:38.562Z,8.54
2023-04-11T06:06:06.741Z,8.50
2023-04-11T06:08:34.036Z,8.54
2023-04-11T06:11:02.638Z,8.65
2023-04-11T06:13:29.829Z,8.78
2023-04-11T06:15:57.079Z,8.88
2023-04-11T06:18:24.268Z,9.06
2023-04-11T06:20:51.427Z,9.22
2023-04-11T06:23:18.623Z,9.31
2023-04-11T06:25:45.769Z,9.62
2023-04-11T06:28:14.308Z,9.70
2023-04-11T06:30:41.800Z,9.90
2023-04-11T06:33:09.181Z,10.15
2023-04-11T06:35:36.421Z,10.14
2023-04-11T06:38:03.744Z,10.20
2023-04-11T06:40:30.945Z,10.43
2023-04-11T06:42:58.245Z,10.19
2023-04-11T06:45:26.879Z,10.37
2023-04-11T06:47:54.138Z,10.35
2023-04-11T06:50:21.391Z,10.49
2023-04-11T06:52:48.582Z,10.70
2023-04-11T06:55:15.845Z,10.58
2023-04-11T06:57:43.731Z,11.08
2023-04-11T07:00:11.769Z,11.22
2023-04-11T07:02:40.496Z,11.57
2023-04-11T07:05:08.410Z,11.55
2023-04-11T07:07:35.576Z,11.50
2023-04-11T07:10:03.044Z,11.64
2023-04-11T07:12:30.298Z,11.59
2023-04-11T07:14:57.439Z,11.32
2023-04-11T07:17:24.737Z,11.47
2023-04-11T07:19:53.352Z,11.47
2023-04-11T07:22:20.522Z,11.45
2023-04-11T07:24:51.646Z,11.39
2023-04-11T07:27:18.808Z,11.20
2023-04-11T07:29:46.009Z,11.25
2023-04-11T07:32:13.261Z,10.81
2023-04-11T07:34:40.487Z,11.39
2023-04-11T07:37:09.020Z,11.48
2023-04-11T07:39:36.271Z,11.74
2023-04-11T07:42:03.550Z,11.61
2023-04-11T07:44:30.715Z,11.43
2023-04-11T07:46:57.923Z,11.58
2023-04-11T07:49:25.073Z,11.51
2023-04-11T07:51:52.243Z,11.00
2023-04-11T07:54:21.881Z,10.98
2023-04-11T07:56:49.133Z,10.71
2023-04-11T07:59:16.327Z,10.99
2023-04-11T08:01:43.640Z,11.18
2023-04-11T08:04:11.185Z,11.20
2023-04-11T08:06:38.440Z,11.25
2023-04-11T08:09:05.686Z,10.85
2023-04-11T08:11:34.259Z,11.20
2023-04-11T08:14:01.456Z,11.38
2023-04-11T08:16:28.801Z,11.70
2023-04-11T08:18:56.030Z,12.03
2023-04-11T08:21:23.203Z,12.37
2023-04-11T08:23:53.279Z,12.44
2023-04-11T08:26:20.488Z,12.09
2023-04-11T08:28:49.070Z,12.22
2023-04-11T08:31:16.264Z,12.02
2023-04-11T08:33:43.568Z,11.75
2023-04-11T08:36:11.525Z,11.38
2023-04-11T08:38:39.847Z,11.13
2023-04-11T08:41:07.218Z,11.13
2023-04-11T08:43:34.562Z,11.19
2023-04-11T08:46:03.642Z,11.43
2023-04-11T08:48:30.878Z,11.83
2023-04-11T08:50:58.073Z,11.68
2023-04-11T08:53:26.805Z,11.76
2023-04-11T08:55:54.017Z,11.67
2023-04-11T08:58:21.240Z,11.89
2023-04-11T09:00:48.422Z,11.73
2023-04-11T09:03:17.470Z,11.51
2023-04-11T09:05:45.337Z,11.57
2023-04-11T09:08:14.299Z,11.46
2023-04-11T09:10:44.185Z,11.90
2023-04-11T09:13:20.120Z,12.43
2023-04-11T09:15:47.950Z,12.25
2023-04-11T09:18:38.306Z,12.55
2023-04-11T09:21:08.079Z,12.63
2023-04-11T09:23:35.777Z,12.86
2023-04-11T09:26:05.294Z,12.67
2023-04-11T09:28:40.755Z,12.59
2023-04-11T09:31:08.901Z,11.92
2023-04-11T09:33:37.534Z,11.56
2023-04-11T09:36:19.123Z,11.09
2023-04-11T09:38:46.477Z,10.50
2023-04-11T09:41:14.128Z,9.12
2023-04-11T09:43:51.033Z,9.19
2023-04-11T09:46:19.297Z,9.12
2023-04-11T09:48:48.491Z,9.37
2023-04-11T09:51:28.141Z,9.45
2023-04-11T09:54:04.710Z,9.79
2023-04-11T09:56:32.662Z,10.22
2023-04-11T09:59:00.776Z,10.52
2023-04-11T10:01:28.029Z,10.69
2023-04-11T10:03:57.617Z,10.85
2023-04-11T10:06:30.674Z,10.79
2023-04-11T10:09:06.040Z,10.85
2023-04-11T10:11:33.608Z,10.82
2023-04-11T10:14:00.986Z,10.88
2023-04-11T10:16:28.325Z,10.66
2023-04-11T10:19:24.633Z,10.59
2023-04-11T10:21:51.910Z,10.76
2023-04-11T10:24:19.464Z,10.76
2023-04-11T10:26:51.223Z,10.70
2023-04-11T10:29:36.888Z,10.72
2023-04-11T10:32:10.487Z,11.23
2023-04-11T10:34:39.477Z,11.75
2023-04-11T10:37:08.315Z,12.06
2023-04-11T10:40:06.866Z,12.02
2023-04-11T10:42:36.055Z,12.82
2023-04-11T10:45:20.844Z,12.66
2023-04-11T10:48:05.685Z,13.32
2023-04-11T10:50:36.796Z,13.46
2023-04-11T10:53:05.625Z,14.07
2023-04-11T10:55:43.393Z,13.94
2023-04-11T10:58:11.613Z,13.46
2023-04-11T11:01:32.126Z,12.50
2023-04-11T11:04:04.977Z,12.12
2023-04-11T11:06:36.194Z,11.40
2023-04-11T11:09:20.941Z,10.98
2023-04-11T11:12:05.235Z,10.17
2023-04-11T11:14:32.407Z,10.01
2023-04-11T11:16:59.777Z,10.10
2023-04-11T11:19:27.174Z,9.79
2023-04-11T11:21:55.951Z,10.05
2023-04-11T11:24:24.896Z,10.51
2023-04-11T11:26:53.405Z,10.35
2023-04-11T11:29:30.014Z,10.62
2023-04-11T11:31:57.350Z,10.88
2023-04-11T11:34:27.780Z,11.24
2023-04-11T11:36:57.326Z,11.26
2023-04-11T11:39:25.549Z,10.99
2023-04-11T11:41:52.958Z,10.95
2023-04-11T11:44:24.182Z,11.33
2023-04-11T11:47:01.266Z,11.90
2023-04-11T11:49:43.166Z,12.29
2023-04-11T11:52:11.687Z,12.65
2023-04-11T11:54:45.168Z,12.87
2023-04-11T11:57:12.476Z,13.40
2023-04-11T11:59:39.727Z,13.59
2023-04-11T12:02:07.173Z,13.71
2023-04-11T12:04:34.763Z,13.61
2023-04-11T12:07:08.444Z,14.08
2023-04-11T12:09:37.170Z,14.25
2023-04-11T12:12:08.967Z,14.27
2023-04-11T12:14:36.002Z,14.19
2023-04-11T12:17:03.112Z,14.15
2023-04-11T12:19:30.461Z,13.72
2023-04-11T12:21:57.721Z,13.49
2023-04-11T12:24:25.036Z,13.48
2023-04-11T12:27:06.072Z,13.59
2023-04-11T12:29:34.322Z,13.77
2023-04-11T12:32:01.500Z,13.45
2023-04-11T12:34:28.721Z,13.34
2023-04-11T12:36:56.064Z,13.17
2023-04-11T12:39:23.423Z,12.92
2023-04-11T12:41:50.673Z,12.95
2023-04-11T12:44:19.213Z,12.76
2023-04-11T12:46:46.395Z,12.71
2023-04-11T12:49:13.595Z,13.08
2023-04-11T12:51:40.763Z,12.60
2023-04-11T12:54:07.979Z,12.48
2023-04-11T12:56:35.161Z,12.38
2023-04-11T12:59:02.359Z,12.81
2023-04-11T13:01:30.965Z,12.82
2023-04-11T13:03:58.425Z,13.36
2023-04-11T13:06:25.859Z,13.74
2023-04-11T13:08:53.073Z,14.07
2023-04-11T13:11:20.293Z,13.86
2023-04-11T13:13:47.536Z,14.07
2023-04-11T13:16:14.972Z,14.25
2023-04-11T13:18:43.562Z,14.10
2023-04-11T13:21:10.742Z,14.25
2023-04-11T13:23:37.920Z,14.14
2023-04-11T13:26:05.316Z,13.87
2023-04-11T13:28:32.819Z,14.05
2023-04-11T13:31:00.130Z,14.12
2023-04-11T13:33:27.309Z,14.37
2023-04-11T13:35:56.122Z,14.01
2023-04-11T13:38:23.383Z,13.88
2023-04-11T13:40:50.572Z,14.41
2023-04-11T13:43:17.782Z,14.25
2023-04-11T13:45:45.021Z,14.46
2023-04-11T13:48:12.327Z,14.50
2023-04-11T13:50:39.584Z,14.41
2023-04-11T13:53:08.631Z,14.16
2023-04-11T13:55:35.825Z,14.64
2023-04-11T13:58:03.024Z,15.05
2023-04-11T14:00:30.209Z,15.24
2023-04-11T14:02:57.624Z,15.17
2023-04-11T14:05:25.096Z,14.98
2023-04-11T14:07:52.348Z,14.79
2023-04-11T14:10:20.970Z,14.52
2023-04-11T14:12:48.164Z,14.63
2023-04-11T14:15:15.321Z,14.29
2023-04-11T14:17:42.564Z,14.43
2023-04-11T14:20:10.652Z,14.75
2023-04-11T14:22:37.948Z,14.39
2023-04-11T14:25:07.992Z,14.64
2023-04-11T14:27:36.647Z,14.30
2023-04-11T14:30:04.528Z,14.05
2023-04-11T14:32:31.798Z,13.71
2023-04-11T14:35:00.018Z,14.20
2023-04-11T14:37:27.369Z,14.46
2023-04-11T14:39:54.501Z,14.75
2023-04-11T14:42:21.655Z,14.84
2023-04-11T14:44:50.388Z,15.12
2023-04-11T14:47:18.326Z,14.98
2023-04-11T14:49:45.619Z,14.75
2023-04-11T14:52:12.879Z,14.86
2023-04-11T14:54:40.112Z,14.95
2023-04-11T14:57:10.974Z,14.93
2023-04-11T14:59:38.508Z,15.05
2023-04-11T15:02:07.334Z,14.79
2023-04-11T15:04:34.565Z,14.49
2023-04-11T15:07:01.910Z,14.42
2023-04-11T15:09:29.063Z,14.48
2023-04-11T15:11:56.238Z,14.65
2023-04-11T15:14:23.414Z,14.53
2023-04-11T15:16:50.591Z,15.20
2023-04-11T15:19:19.114Z,15.34
2023-04-11T15:21:46.339Z,15.52
2023-04-11T15:24:13.472Z,15.55
2023-04-11T15:26:43.407Z,16.06
2023-04-11T15:29:14.258Z,16.17
2023-04-11T15:31:41.457Z,15.72
2023-04-11T15:34:09.037Z,16.55
2023-04-11T15:36:37.863Z,15.93
2023-04-11T15:39:05.169Z,16.04
2023-04-11T15:41:32.499Z,16.58
2023-04-11T15:43:59.641Z,16.68
2023-04-11T15:46:26.933Z,17.15
2023-04-11T15:48:54.180Z,17.18
2023-04-11T15:51:22.037Z,17.28
2023-04-11T15:53:50.557Z,16.84
2023-04-11T15:56:19.919Z,16.16
2023-04-11T15:58:48.045Z,15.83
2023-04-11T16:01:19.524Z,15.57
2023-04-11T16:03:47.059Z,15.07
2023-04-11T16:06:14.413Z,14.94
2023-04-11T16:08:41.603Z,14.73
2023-04-11T16:11:10.293Z,14.75
2023-04-11T16:13:37.723Z,14.28
2023-04-11T16:16:08.892Z,14.32
2023-04-11T16:18:36.139Z,14.10
2023-04-11T16:21:03.648Z,13.70
2023-04-11T16:23:30.856Z,13.67
2023-04-11T16:25:58.069Z,13.72
2023-04-11T16:28:26.627Z,13.51
2023-04-11T16:30:54.427Z,13.37
2023-04-11T16:33:22.724Z,13.35
2023-04-11T16:35:50.006Z,13.23
2023-04-11T16:38:17.212Z,13.21
2023-04-11T16:40:44.394Z,13.25
2023-04-11T16:43:11.606Z,13.14
2023-04-11T16:45:40.217Z,12.93
2023-04-11T16:48:07.459Z,12.73
2023-04-11T16:50:34.763Z,12.58
2023-04-11T16:53:02.066Z,12.55
2023-04-11T16:55:29.283Z,12.51
2023-04-11T16:57:56.487Z,12.51
2023-04-11T17:00:24.112Z,12.51
2023-04-11T17:02:52.765Z,12.64
2023-04-11T17:05:20.199Z,12.75
2023-04-11T17:07:47.352Z,12.61
2023-04-11T17:10:14.852Z,12.58
2023-04-11T17:12:42.200Z,12.65
2023-04-11T17:15:10.128Z,12.56
2023-04-11T17:17:37.342Z,12.46
2023-04-11T17:20:07.418Z,12.37
2023-04-11T17:22:34.770Z,12.21
2023-04-11T17:25:02.125Z,11.97
2023-04-11T17:27:29.286Z,11.91
2023-04-11T17:29:56.518Z,11.67
2023-04-11T17:32:23.884Z,11.64
2023-04-11T17:34:51.162Z,11.51
2023-04-11T17:37:19.699Z,11.40
2023-04-11T17:39:46.896Z,11.12
2023-04-11T17:42:14.045Z,10.93
2023-04-11T17:44:41.192Z,10.72
2023-04-11T17:47:08.364Z,10.54
2023-04-11T17:49:35.540Z,10.30
2023-04-11T17:52:02.713Z,9.95
2023-04-11T17:54:31.231Z,9.81
2023-04-11T17:56:58.401Z,9.70
2023-04-11T17:59:25.677Z,9.55
2023-04-11T18:01:52.945Z,9.44
2023-04-11T18:04:20.394Z,9.22
2023-04-11T18:06:47.828Z,9.19
2023-04-11T18:09:15.054Z,9.09
2023-04-11T18:11:43.638Z,8.85
2023-04-11T18:14:10.952Z,8.74
2023-04-11T18:16:38.195Z,8.76
2023-04-11T18:19:05.409Z,8.66
2023-04-11T18:21:32.644Z,8.48
2023-04-11T18:23:59.837Z,8.39
2023-04-11T18:26:27.023Z,8.28
2023-04-11T18:28:55.556Z,8.14
2023-04-11T18:31:22.927Z,8.14
2023-04-11T18:33:50.273Z,7.99
2023-04-11T18:36:17.609Z,7.84
2023-04-11T18:38:44.826Z,7.84
2023-04-11T18:41:11.989Z,7.70
2023-04-11T18:43:58.210Z,7.52
2023-04-11T18:46:27.333Z,7.42
2023-04-11T18:48:56.108Z,7.39
2023-04-11T18:51:23.326Z,7.39
2023-04-11T18:53:50.500Z,7.32
2023-04-11T18:56:17.690Z,7.26
2023-04-11T18:58:46.634Z,7.08
2023-04-11T19:01:17.296Z,7.08
2023-04-11T19:03:46.809Z,7.09
2023-04-11T19:06:14.302Z,7.03
2023-04-11T19:08:41.566Z,6.97
2023-04-11T19:11:08.739Z,6.96
2023-04-11T19:13:35.927Z,6.94
2023-04-11T19:16:03.378Z,6.90
2023-04-11T19:18:30.666Z,6.82
2023-04-11T19:20:59.294Z,6.75
2023-04-11T19:23:26.479Z,6.71
2023-04-11T19:25:53.688Z,6.66
2023-04-11T19:28:20.870Z,6.61
2023-04-11T19:30:48.661Z,6.51
2023-04-11T19:33:15.798Z,6.45
2023-04-11T19:35:42.983Z,6.42
2023-04-11T19:38:11.715Z,6.40
2023-04-11T19:40:38.906Z,6.34
2023-04-11T19:43:06.158Z,6.30
2023-04-11T19:45:33.420Z,6.27
2023-04-11T19:48:00.691Z,6.19
2023-04-11T19:50:29.503Z,6.14
2023-04-11T19:52:56.708Z,6.11
2023-04-11T19:55:25.297Z,6.14
2023-04-11T19:57:52.472Z,6.07
2023-04-11T20:00:19.666Z,6.02
2023-04-11T20:02:47.833Z,5.90
2023-04-11T20:05:17.013Z,5.84
2023-04-11T20:07:44.244Z,5.76
2023-04-11T20:10:12.099Z,5.71
2023-04-11T20:12:40.673Z,5.68
2023-04-11T20:15:09.223Z,5.65
2023-04-11T20:17:36.487Z,5.60
2023-04-11T20:20:04.085Z,5.58
2023-04-11T20:22:31.301Z,5.52
2023-04-11T20:24:58.483Z,5.50
2023-04-11T20:27:25.672Z,5.47
2023-04-11T20:29:54.154Z,5.43
2023-04-11T20:32:21.302Z,5.35
2023-04-11T20:34:48.488Z,5.33
2023-04-11T20:37:17.040Z,5.29
2023-04-11T20:39:46.010Z,5.28
2023-04-11T20:42:13.178Z,5.26
2023-04-11T20:44:42.617Z,5.22
2023-04-11T20:47:11.347Z,5.20
2023-04-11T20:49:38.764Z,5.19
2023-04-11T20:52:07.186Z,5.13
2023-04-11T20:54:34.451Z,5.12
2023-04-11T20:57:01.750Z,5.10
2023-04-11T20:59:29.058Z,5.08
2023-04-11T21:01:56.431Z,5.07
2023-04-11T21:04:25.231Z,5.08
2023-04-11T21:06:52.478Z,5.07
2023-04-11T21:09:19.776Z,5.07
2023-04-11T21:11:46.924Z,5.08
2023-04-11T21:14:14.094Z,5.06
2023-04-11T21:16:41.249Z,5.08
2023-04-11T21:19:08.417Z,5.07
2023-04-11T21:21:39.407Z,5.06
2023-04-11T21:24:07.118Z,5.05
2023-04-11T21:26:34.403Z,5.03
2023-04-11T21:29:01.740Z,4.98
2023-04-11T21:31:28.966Z,4.98
2023-04-11T21:33:56.335Z,4.92
2023-04-11T21:36:23.698Z,4.92
2023-04-11T21:38:52.228Z,4.90
2023-04-11T21:41:19.476Z,4.91
2023-04-11T21:43:46.671Z,4.88
2023-04-11T21:46:13.899Z,4.89
2023-04-11T21:48:41.115Z,4.90
2023-04-11T21:51:08.490Z,4.91
2023-04-11T21:53:35.751Z,4.90
2023-04-11T21:56:06.307Z,4.90
2023-04-11T21:58:33.460Z,4.91
2023-04-11T22:01:00.825Z,4.89
2023-04-11T22:03:28.267Z,4.89
2023-04-11T22:05:56.392Z,4.86
2023-04-11T22:08:23.959Z,4.87
2023-04-11T22:10:51.176Z,4.80
2023-04-11T22:13:19.763Z,4.81
2023-04-11T22:15:48.069Z,4.83
2023-04-11T22:18:15.305Z,4.84
2023-04-11T22:20:43.317Z,4.82
2023-04-11T22:23:11.188Z,4.84
2023-04-11T22:25:38.532Z,4.87
2023-04-11T22:28:05.722Z,4.82
2023-04-11T22:30:34.602Z,4.81
2023-04-11T22:33:01.881Z,4.80
2023-04-11T22:35:29.148Z,4.75
2023-04-11T22:37:56.355Z,4.80
2023-04-11T22:40:23.937Z,4.79
2023-04-11T22:42:51.920Z,4.78
2023-04-11T22:45:19.941Z,4.80
2023-04-11T22:47:48.893Z,4.82
2023-04-11T22:50:16.224Z,4.86
2023-04-11T22:52:43.436Z,4.87
2023-04-11T22:55:10.995Z,4.88
2023-04-11T22:57:38.231Z,4.91
2023-04-11T23:00:06.532Z,4.90
2023-04-11T23:02:34.348Z,4.88
2023-04-11T23:05:04.013Z,4.86
2023-04-11T23:07:31.897Z,4.86
2023-04-11T23:09:59.097Z,4.82
2023-04-11T23:12:26.515Z,4.85
2023-04-11T23:14:53.675Z,4.86
2023-04-11T23:17:20.935Z,4.88
2023-04-11T23:19:48.113Z,4.85
2023-04-11T23:22:16.647Z,4.85
2023-04-11T23:24:43.819Z,4.85
2023-04-11T23:27:11.282Z,4.86
2023-04-11T23:29:38.790Z,4.86
2023-04-11T23:32:05.970Z,4.87
2023-04-11T23:34:33.159Z,4.88
2023-04-11T23:37:00.295Z,4.86
2023-04-11T23:39:28.926Z,4.86
2023-04-11T23:41:56.172Z,4.82
2023-04-11T23:44:23.431Z,4.84
2023-04-11T23:46:50.641Z,4.85
2023-04-11T23:49:17.810Z,4.82
2023-04-11T23:51:45.000Z,4.87
2023-04-11T23:54:12.213Z,4.86
2023-04-11T23:56:40.733Z,4.80
2023-04-11T23:59:07.867Z,4.80
